»·PEaware :: N5328W KSMX-KBFL

N5328W :: KSMX-KBFL

FLIGHT INFORMATION

Flight Status: Arrived
Operator: Privately registered:
United States
More flights under this callsign
Pilot: Nick S. (31988)
Aircraft: Unknown
(A36)
More flights by this aircraft type
Origin: KSMX Santa Maria Pub/Capt Hancock
United States
Destination: KBFL Meadows
United States
More flights between these airports :: More routes between these airports
Route: +WYNNR
File this flight plan on PilotEdge
Remarks:
Altitude:
(Current/Filed)
5,500ft
Speed:
(Current/Filed)
150kts
Departed: 14-Oct-20 08:09 PM
Arrived: 14-Oct-20 08:54 PM
Distance/Time
Traveled:
76nm/0:45
Distance/Time
To Go:
Arrived

Flight Plot

Page will automatically refresh every two minutes.

Flight plan parsing failed; only flown route is shown


Map Options




Map Legend


Flown Route
Filed Route
Departure Airport
Arrival Airport
Navaid (VOR, NDB)
Fix

Horizontal Profiles

Position Reports

Time Latitude Longitude Heading Altitude Ground
Speed
14-Oct-20 19:50 34.899847 -120.450689 179 245ft 0kts
14-Oct-20 19:51 34.899847 -120.450689 179 245ft 0kts
14-Oct-20 19:52 34.899847 -120.450689 179 245ft 0kts
14-Oct-20 19:53 34.899848 -120.450689 179 245ft 0kts
14-Oct-20 19:54 34.899848 -120.450689 179 245ft 0kts
14-Oct-20 19:55 34.899848 -120.450689 179 245ft 0kts
14-Oct-20 19:56 34.899848 -120.450689 179 245ft 0kts
14-Oct-20 19:57 34.899848 -120.450689 179 245ft 0kts
14-Oct-20 19:58 34.899848 -120.450689 179 245ft 0kts
14-Oct-20 19:59 34.899848 -120.450689 179 245ft 0kts
14-Oct-20 20:00 34.899848 -120.450689 179 245ft 0kts
14-Oct-20 20:01 34.899848 -120.450689 179 245ft 0kts
14-Oct-20 20:02 34.899842 -120.450689 168 245ft 2kts
14-Oct-20 20:03 34.897431 -120.449058 120 251ft 13kts
14-Oct-20 20:04 34.893934 -120.445253 184 262ft 15kts
14-Oct-20 20:05 34.893566 -120.445282 181 263ft 0kts
14-Oct-20 20:06 34.893566 -120.445282 181 263ft 0kts
14-Oct-20 20:07 34.893442 -120.445279 176 263ft 9kts
14-Oct-20 20:08 34.900316 -120.454958 316 348ft 87kts
14-Oct-20 20:09 34.919392 -120.457983 74 1087ft 95kts
14-Oct-20 20:10 34.931704 -120.425398 50 1535ft 117kts
14-Oct-20 20:11 34.954330 -120.397759 41 2232ft 113kts
14-Oct-20 20:12 34.976823 -120.372944 41 2946ft 104kts
14-Oct-20 20:13 34.996818 -120.350601 41 3655ft 90kts
14-Oct-20 20:14 35.014565 -120.330736 42 4229ft 88kts
14-Oct-20 20:15 35.033721 -120.309232 43 4571ft 109kts
14-Oct-20 20:16 35.059108 -120.280853 42 4571ft 131kts
14-Oct-20 20:17 35.085908 -120.250829 42 4570ft 130kts
14-Oct-20 20:18 35.112461 -120.220998 44 4516ft 131kts
14-Oct-20 20:19 35.127499 -120.180258 71 4476ft 138kts
14-Oct-20 20:20 35.140087 -120.134706 71 4608ft 136kts
14-Oct-20 20:22 35.151126 -120.094929 70 5110ft 109kts
14-Oct-20 20:23 35.159281 -120.065491 73 5355ft 84kts
14-Oct-20 20:24 35.166821 -120.038508 65 5300ft 85kts
14-Oct-20 20:25 35.177105 -120.012759 73 5296ft 87kts
14-Oct-20 20:26 35.185295 -119.980179 76 5374ft 100kts
14-Oct-20 20:27 35.191468 -119.945702 75 5335ft 108kts
14-Oct-20 20:28 35.200861 -119.911075 68 5311ft 102kts
14-Oct-20 20:29 35.209374 -119.875691 73 5290ft 109kts
14-Oct-20 20:30 35.219229 -119.840060 63 5343ft 108kts
14-Oct-20 20:31 35.228805 -119.804662 66 5443ft 105kts
14-Oct-20 20:32 35.239107 -119.772041 73 5257ft 123kts
14-Oct-20 20:33 35.249340 -119.733402 58 5407ft 112kts
14-Oct-20 20:34 35.259445 -119.696482 74 5350ft 120kts
14-Oct-20 20:35 35.271157 -119.658960 68 5374ft 118kts
14-Oct-20 20:36 35.280817 -119.621319 74 5382ft 118kts
14-Oct-20 20:37 35.291203 -119.581436 71 4952ft 126kts
14-Oct-20 20:38 35.303986 -119.542434 69 4421ft 123kts
14-Oct-20 20:39 35.315627 -119.503695 69 3719ft 121kts
14-Oct-20 20:40 35.325566 -119.462615 70 3351ft 134kts
14-Oct-20 20:40 35.335027 -119.425417 73 3398ft 138kts
14-Oct-20 20:41 35.348444 -119.382398 74 2707ft 135kts
14-Oct-20 20:42 35.357238 -119.337161 79 2020ft 138kts
14-Oct-20 20:43 35.369660 -119.289870 66 1603ft 154kts
14-Oct-20 20:44 35.386151 -119.239986 68 1479ft 158kts
14-Oct-20 20:45 35.397450 -119.191538 76 1504ft 134kts
14-Oct-20 20:46 35.403364 -119.152342 62 1628ft 113kts
14-Oct-20 20:47 35.418562 -119.116668 66 1826ft 125kts
14-Oct-20 20:48 35.423765 -119.083896 144 1717ft 100kts
14-Oct-20 20:49 35.401849 -119.058631 141 1333ft 108kts
14-Oct-20 20:50 35.389633 -119.031331 45 1202ft 93kts
14-Oct-20 20:51 35.409812 -119.027575 314 844ft 98kts
14-Oct-20 20:52 35.427932 -119.049126 314 557ft 82kts
14-Oct-20 20:53 35.436290 -119.057708 64 494ft 0kts
14-Oct-20 20:54 35.435745 -119.055466 46 492ft 17kts
14-Oct-20 20:55 35.436881 -119.054693 1 494ft 0kts
14-Oct-20 20:56 35.436881 -119.054693 1 494ft 0kts

Navigation Log

Ident Type
Flight plan parsing failed, navigation log unavailable